Time;durP1;ratioP1;P1;durP2;ratioP2;P2;SDS_P1;SDS_P2;PMS_P1;PMS_P2;Temp;Humidity;BMP_temperature;BMP_pressure;BME280_temperature;BME280_humidity;BME280_pressure;Samples;Min_cycle;Max_cycle;Signal;HPM_P1;HPM_P2
2023/05/17 00:00:16;;;;;;;6.95;4.13;;;;;;;13.48;100.00;99568.00;5049469;28;20059;-73
2023/05/17 00:02:42;;;;;;;8.57;4.75;;;;;;;13.34;100.00;99548.84;5049633;28;20033;-75
2023/05/17 00:05:08;;;;;;;9.73;4.85;;;;;;;13.33;100.00;99546.41;5050308;28;20025;-73
2023/05/17 00:07:33;;;;;;;10.48;5.60;;;;;;;13.26;100.00;99531.31;5048607;28;20032;-74
2023/05/17 00:09:59;;;;;;;8.07;5.13;;;;;;;13.26;100.00;99533.19;5031734;28;20036;-74
2023/05/17 00:12:24;;;;;;;8.70;5.05;;;;;;;13.38;100.00;99538.41;5049585;28;20450;-74
2023/05/17 00:14:50;;;;;;;9.05;4.85;;;;;;;13.62;100.00;99545.13;5047863;28;20036;-74
2023/05/17 00:17:15;;;;;;;11.05;5.35;;;;;;;13.41;100.00;99530.69;5049438;28;20422;-73
2023/05/17 00:19:41;;;;;;;10.27;5.00;;;;;;;13.20;100.00;99529.63;5049339;28;20025;-75
2023/05/17 00:22:06;;;;;;;10.60;4.97;;;;;;;13.37;100.00;99521.53;5049654;28;20107;-73
2023/05/17 00:24:32;;;;;;;10.88;5.32;;;;;;;13.39;100.00;99524.78;5048766;28;20394;-74
2023/05/17 00:26:57;;;;;;;9.10;5.43;;;;;;;13.57;100.00;99534.38;5049341;28;20036;-73
2023/05/17 00:29:22;;;;;;;10.85;5.63;;;;;;;13.48;100.00;99538.53;5048869;28;20494;-74
2023/05/17 00:31:48;;;;;;;11.90;5.35;;;;;;;13.63;100.00;99545.94;5049665;28;20025;-73
2023/05/17 00:34:13;;;;;;;10.05;5.60;;;;;;;13.85;100.00;99552.09;5049446;28;20458;-73
2023/05/17 00:36:39;;;;;;;10.85;5.47;;;;;;;13.88;100.00;99548.06;5031107;28;20025;-74
2023/05/17 00:39:04;;;;;;;10.13;5.28;;;;;;;13.83;100.00;99556.88;5048566;28;20530;-73
2023/05/17 00:41:30;;;;;;;8.80;5.45;;;;;;;13.78;100.00;99531.91;5049824;28;20629;-75
2023/05/17 00:43:55;;;;;;;10.57;5.47;;;;;;;13.96;100.00;99565.59;5048446;28;20040;-74
2023/05/17 00:46:21;;;;;;;12.32;5.97;;;;;;;13.90;100.00;99547.84;5031453;28;20037;-74
2023/05/17 00:48:46;;;;;;;9.15;5.72;;;;;;;13.83;100.00;99542.66;5048352;28;20421;-72
2023/05/17 00:51:13;;;;;;;10.68;5.75;;;;;;;13.84;100.00;99541.59;5048363;28;20509;-73
2023/05/17 00:53:39;;;;;;;9.07;6.07;;;;;;;13.94;100.00;99541.69;5049034;28;20060;-74
2023/05/17 00:56:05;;;;;;;12.18;7.18;;;;;;;13.83;100.00;99538.13;5050595;28;20029;-73
2023/05/17 00:58:30;;;;;;;10.60;6.35;;;;;;;13.86;100.00;99534.13;5051008;28;20049;-74
2023/05/17 01:00:58;;;;;;;9.18;6.03;;;;;;;14.00;100.00;99532.66;5033746;28;20125;-73
2023/05/17 01:03:23;;;;;;;11.57;6.97;;;;;;;14.01;100.00;99542.28;5051564;28;20108;-72
2023/05/17 01:05:50;;;;;;;13.00;6.68;;;;;;;14.07;100.00;99535.91;5052455;28;20359;-73
2023/05/17 01:08:15;;;;;;;11.90;6.47;;;;;;;14.18;100.00;99533.31;5033380;28;20037;-73
2023/05/17 01:11:00;;;;;;;14.52;6.47;;;;;;;13.75;100.00;99511.78;5051569;28;20593;-74
2023/05/17 01:13:41;;;;;;;15.02;6.60;;;;;;;13.80;100.00;99513.69;5051536;28;20051;-74
2023/05/17 01:16:17;;;;;;;11.07;7.05;;;;;;;13.84;100.00;99525.53;5031396;28;20423;-73
2023/05/17 01:18:54;;;;;;;11.38;6.68;;;;;;;13.72;100.00;99522.19;5050916;28;20043;-73
2023/05/17 01:21:38;;;;;;;13.63;6.93;;;;;;;13.54;100.00;99510.75;5052106;28;20490;-72
2023/05/17 01:24:26;;;;;;;11.60;6.90;;;;;;;13.48;100.00;99522.47;5051371;28;20045;-74
2023/05/17 01:26:52;;;;;;;;;;;;;;;13.62;100.00;99517.53;5033804;28;20091;-72
2023/05/17 01:29:22;;;;;;;14.25;6.57;;;;;;;13.86;100.00;99528.75;5051138;28;19920;-72
2023/05/17 01:31:48;;;;;;;11.40;6.20;;;;;;;13.84;100.00;99514.81;5033735;28;20028;-73
2023/05/17 01:34:24;;;;;;;10.80;6.35;;;;;;;13.75;100.00;99511.78;5050945;28;20029;-73
2023/05/17 01:36:49;;;;;;;10.73;6.80;;;;;;;13.69;100.00;99514.63;5051108;28;20078;-72
2023/05/17 01:39:15;;;;;;;12.23;6.65;;;;;;;13.75;100.00;99505.59;5050966;28;20029;-73
2023/05/17 01:41:41;;;;;;;11.75;6.90;;;;;;;13.78;100.00;99505.09;5051131;28;20387;-73
2023/05/17 01:44:28;;;;;;;13.95;7.13;;;;;;;13.69;100.00;99511.97;5050816;28;20017;-73
2023/05/17 01:47:08;;;;;;;13.57;7.13;;;;;;;13.70;100.00;99505.56;5050668;28;20182;-73
2023/05/17 01:49:37;;;;;;;12.30;7.10;;;;;;;13.68;100.00;99497.75;5051040;28;20092;-74
2023/05/17 01:52:15;;;;;;;12.68;6.70;;;;;;;13.58;100.00;99474.34;5050592;28;20040;-73
2023/05/17 01:54:55;;;;;;;10.88;6.32;;;;;;;13.62;100.00;99491.53;5050895;28;20029;-73
2023/05/17 01:57:27;;;;;;;10.63;6.40;;;;;;;13.27;100.00;99471.31;5050283;28;20049;-73
2023/05/17 01:59:54;;;;;;;13.68;6.40;;;;;;;13.52;100.00;99491.44;5048618;28;20032;-73
2023/05/17 02:02:21;;;;;;;12.77;6.53;;;;;;;13.51;100.00;99467.59;5049261;28;20064;-75
2023/05/17 02:04:47;;;;;;;11.32;6.32;;;;;;;13.46;100.00;99495.13;5047190;28;20029;-74
2023/05/17 02:07:12;;;;;;;11.10;6.50;;;;;;;13.53;100.00;99490.38;5049694;28;20071;-74
2023/05/17 02:09:38;;;;;;;12.52;7.57;;;;;;;13.72;100.00;99498.88;5050174;28;20128;-73
2023/05/17 02:12:03;;;;;;;11.70;6.38;;;;;;;13.55;100.00;99488.25;5032905;28;20495;-73
2023/05/17 02:14:29;;;;;;;9.77;6.70;;;;;;;13.54;100.00;99505.38;5050972;28;20029;-73
2023/05/17 02:16:54;;;;;;;13.93;6.57;;;;;;;13.28;100.00;99528.38;5050891;28;20037;-74
2023/05/17 02:19:20;;;;;;;10.50;6.55;;;;;;;13.08;100.00;99518.22;5050984;28;20037;-74
2023/05/17 02:21:45;;;;;;;11.75;6.43;;;;;;;13.27;100.00;99532.09;5049825;28;20025;-74
2023/05/17 02:24:11;;;;;;;13.30;6.65;;;;;;;13.34;100.00;99507.84;5051619;28;20037;-75
2023/05/17 02:26:37;;;;;;;9.82;6.68;;;;;;;13.24;100.00;99533.44;5050519;28;20037;-74
2023/05/17 02:29:02;;;;;;;13.32;6.93;;;;;;;13.39;100.00;99532.03;5050312;28;20029;-74
2023/05/17 02:31:28;;;;;;;12.52;7.00;;;;;;;13.48;100.00;99532.38;5050243;28;20031;-74
2023/05/17 02:33:53;;;;;;;14.10;6.97;;;;;;;13.14;100.00;99546.69;5051328;28;20082;-74
2023/05/17 02:36:19;;;;;;;11.55;7.10;;;;;;;13.31;100.00;99535.13;5032143;28;20041;-74
2023/05/17 02:38:44;;;;;;;12.38;7.05;;;;;;;13.37;100.00;99550.22;5032828;28;20033;-74
2023/05/17 02:41:09;;;;;;;12.10;7.00;;;;;;;13.26;100.00;99547.38;5032108;28;20501;-74
2023/05/17 02:43:35;;;;;;;11.98;6.88;;;;;;;13.09;100.00;99551.16;5050742;28;20565;-74
2023/05/17 02:46:00;;;;;;;11.75;7.22;;;;;;;13.17;100.00;99551.53;5050303;28;20037;-74
2023/05/17 02:48:26;;;;;;;12.90;6.97;;;;;;;12.95;100.00;99540.00;5050638;28;20032;-74
2023/05/17 02:50:51;;;;;;;12.18;6.68;;;;;;;12.90;100.00;99545.28;5050135;28;20044;-74
2023/05/17 02:53:17;;;;;;;11.68;6.90;;;;;;;12.93;100.00;99548.25;5049839;28;20029;-74
2023/05/17 02:55:42;;;;;;;10.82;6.07;;;;;;;13.03;100.00;99539.56;5050150;28;20035;-74
2023/05/17 02:58:08;;;;;;;12.93;6.60;;;;;;;12.97;100.00;99527.97;5050020;28;20118;-74
2023/05/17 03:00:33;;;;;;;12.88;7.03;;;;;;;13.24;100.00;99554.84;5050254;28;20623;-73
2023/05/17 03:02:58;;;;;;;14.93;7.03;;;;;;;13.01;100.00;99550.50;5048617;28;20102;-74
2023/05/17 03:05:24;;;;;;;10.63;7.03;;;;;;;12.93;100.00;99558.97;5031650;28;20029;-74
2023/05/17 03:07:49;;;;;;;13.10;7.20;;;;;;;13.10;100.00;99553.59;5049125;28;20036;-73
2023/05/17 03:10:15;;;;;;;13.10;6.60;;;;;;;13.21;100.00;99557.22;5050124;28;20033;-74
2023/05/17 03:12:41;;;;;;;11.50;6.60;;;;;;;13.22;100.00;99562.31;5050943;28;20033;-75
2023/05/17 03:15:07;;;;;;;13.93;6.43;;;;;;;13.26;100.00;99568.78;5049867;28;20072;-74
2023/05/17 03:17:32;;;;;;;14.45;6.95;;;;;;;13.21;100.00;99557.22;5049517;28;20064;-75
2023/05/17 03:19:57;;;;;;;10.63;7.70;;;;;;;13.41;100.00;99565.53;5049845;28;20052;-75
2023/05/17 03:22:23;;;;;;;10.60;7.32;;;;;;;13.52;100.00;99577.16;5049281;28;20028;-75
2023/05/17 03:24:48;;;;;;;11.50;7.53;;;;;;;13.36;100.00;99573.50;5031874;28;20017;-74
2023/05/17 03:27:14;;;;;;;14.20;8.05;;;;;;;13.53;100.00;99583.34;5049399;28;20029;-74
2023/05/17 03:29:39;;;;;;;13.25;8.05;;;;;;;13.40;100.00;99573.78;5049782;28;20028;-74
2023/05/17 03:32:05;;;;;;;12.18;7.63;;;;;;;13.28;100.00;99579.25;5049993;28;20063;-75
2023/05/17 03:34:31;;;;;;;13.98;9.13;;;;;;;13.34;100.00;99569.44;5050130;28;20086;-74
2023/05/17 03:36:56;;;;;;;18.55;9.43;;;;;;;13.42;100.00;99567.16;5049922;28;20043;-74
2023/05/17 03:39:21;;;;;;;13.55;8.68;;;;;;;13.32;100.00;99572.38;5049650;28;20037;-74
2023/05/17 03:41:47;;;;;;;13.85;9.02;;;;;;;13.02;100.00;99586.94;5049295;28;20025;-74
2023/05/17 03:44:12;;;;;;;12.80;8.07;;;;;;;13.29;100.00;99582.75;5047847;28;20017;-73
2023/05/17 03:46:38;;;;;;;13.95;7.05;;;;;;;13.38;100.00;99565.19;5071857;28;20270;-76
2023/05/17 03:49:03;;;;;;;11.23;7.13;;;;;;;13.59;100.00;99593.06;5072778;28;20033;-75
2023/05/17 03:51:29;;;;;;;13.25;7.55;;;;;;;13.46;100.00;99596.91;5072610;28;20028;-75
2023/05/17 03:53:59;;;;;;;12.65;6.82;;;;;;;13.44;100.00;99602.53;5073099;28;20021;-75
2023/05/17 03:56:25;;;;;;;12.73;7.07;;;;;;;13.45;100.00;99593.44;5072799;28;20067;-75
2023/05/17 03:58:50;;;;;;;12.63;7.63;;;;;;;13.48;100.00;99568.00;5072969;28;20036;-75
2023/05/17 04:01:16;;;;;;;13.25;7.72;;;;;;;13.52;100.00;99585.19;5072683;28;20021;-75
2023/05/17 04:03:41;;;;;;;15.55;7.78;;;;;;;13.63;100.00;99583.47;5070978;28;20031;-77
2023/05/17 04:06:07;;;;;;;10.85;7.20;;;;;;;13.31;100.00;99568.06;5069604;28;20031;-73
2023/05/17 04:08:34;;;;;;;11.80;8.05;;;;;;;13.54;100.00;99599.16;5072042;28;20033;-76
2023/05/17 04:11:08;;;;;;;14.95;9.32;;;;;;;13.57;100.00;99600.53;5072823;28;20098;-74
2023/05/17 04:13:35;;;;;;;16.20;8.55;;;;;;;13.66;100.00;99602.50;5072445;28;20035;-74
2023/05/17 04:16:00;;;;;;;12.45;9.15;;;;;;;13.76;100.00;99601.00;5072609;28;20025;-73
2023/05/17 04:18:26;;;;;;;13.20;8.98;;;;;;;13.93;100.00;99593.69;5072433;28;20056;-75
2023/05/17 04:20:51;;;;;;;16.42;8.35;;;;;;;13.68;100.00;99593.41;5072256;28;20029;-74
2023/05/17 04:23:17;;;;;;;13.48;8.55;;;;;;;13.90;100.00;99588.84;5072536;28;20049;-75
2023/05/17 04:25:42;;;;;;;13.25;8.13;;;;;;;13.93;100.00;99582.16;5072516;28;20040;-73
2023/05/17 04:28:08;;;;;;;12.57;8.75;;;;;;;14.01;100.00;99584.38;5072250;28;20093;-76
2023/05/17 04:30:33;;;;;;;12.80;8.65;;;;;;;14.04;100.00;99587.38;5075344;28;20116;-75
2023/05/17 04:32:59;;;;;;;11.55;8.73;;;;;;;14.20;100.00;99584.81;5073484;28;20039;-75
2023/05/17 04:35:25;;;;;;;15.20;8.82;;;;;;;14.26;100.00;99597.22;5074094;28;20025;-76
2023/05/17 04:37:51;;;;;;;13.07;7.75;;;;;;;14.13;100.00;99605.69;5058918;28;20044;-77
2023/05/17 04:40:17;;;;;;;14.32;8.80;;;;;;;14.03;100.00;99607.19;5076224;28;20062;-78
2023/05/17 04:42:42;;;;;;;15.65;8.38;;;;;;;14.20;100.00;99617.00;5076092;28;20075;-77
2023/05/17 04:45:09;;;;;;;13.60;8.02;;;;;;;14.45;100.00;99614.56;5076120;28;20029;-76
2023/05/17 04:47:34;;;;;;;14.77;8.43;;;;;;;14.51;100.00;99620.00;5075528;28;20104;-77
2023/05/17 04:50:00;;;;;;;13.00;8.13;;;;;;;14.65;100.00;99631.94;5075699;28;20052;-76
2023/05/17 04:52:25;;;;;;;12.55;7.65;;;;;;;14.82;100.00;99621.84;5058163;28;20037;-76
2023/05/17 04:54:51;;;;;;;15.07;8.05;;;;;;;14.81;100.00;99640.91;5066723;28;20036;-76
2023/05/17 04:57:16;;;;;;;12.45;7.25;;;;;;;14.82;100.00;99621.06;5053601;28;20426;-75
2023/05/17 04:59:42;;;;;;;12.63;8.27;;;;;;;14.75;100.00;99626.66;5053443;28;20170;-74
2023/05/17 05:02:07;;;;;;;16.65;8.00;;;;;;;15.11;100.00;99645.69;5052258;28;20024;-74
2023/05/17 05:04:32;;;;;;;14.68;8.15;;;;;;;15.31;100.00;99641.50;5051603;28;20053;-77
2023/05/17 05:06:58;;;;;;;16.08;8.02;;;;;;;15.23;100.00;99632.06;5051993;28;20099;-75
2023/05/17 05:09:23;;;;;;;16.58;8.43;;;;;;;15.20;100.00;99628.03;5050804;28;20083;-75
2023/05/17 05:11:49;;;;;;;15.40;7.72;;;;;;;15.47;100.00;99637.84;5049968;28;20466;-75
2023/05/17 05:14:14;;;;;;;10.77;6.97;;;;;;;15.40;100.00;99634.56;5049846;28;20478;-73
2023/05/17 05:16:40;;;;;;;11.90;7.38;;;;;;;15.41;100.00;99644.25;5031560;28;20091;-73
2023/05/17 05:19:05;;;;;;;13.82;8.30;;;;;;;15.42;100.00;99646.66;5049478;28;20483;-74
2023/05/17 05:21:30;;;;;;;11.93;7.63;;;;;;;15.19;100.00;99626.38;5031482;28;20025;-73
2023/05/17 05:23:56;;;;;;;13.63;7.95;;;;;;;15.33;100.00;99632.13;5049199;28;20039;-76
2023/05/17 05:26:21;;;;;;;12.02;7.68;;;;;;;15.33;100.00;99631.31;5030996;28;20065;-74
2023/05/17 05:28:47;;;;;;;13.00;7.65;;;;;;;15.57;100.00;99611.00;5048707;28;20032;-74
2023/05/17 05:31:12;;;;;;;14.25;8.15;;;;;;;15.72;100.00;99633.63;5049333;28;20035;-75
2023/05/17 05:33:38;;;;;;;15.45;8.15;;;;;;;15.74;100.00;99626.16;5048672;28;20029;-75
2023/05/17 05:36:03;;;;;;;12.98;8.30;;;;;;;15.88;100.00;99638.03;5048992;28;20045;-75
2023/05/17 05:38:29;;;;;;;13.90;8.55;;;;;;;16.06;100.00;99634.84;5048157;28;20564;-75
2023/05/17 05:40:54;;;;;;;15.68;7.85;;;;;;;16.08;100.00;99629.19;5047424;28;20029;-74
2023/05/17 05:43:20;;;;;;;14.75;7.55;;;;;;;15.67;100.00;99623.66;5048668;28;20107;-75
2023/05/17 05:45:46;;;;;;;14.23;8.35;;;;;;;15.90;100.00;99630.50;5030157;28;20025;-75
2023/05/17 05:48:14;;;;;;;10.93;7.75;;;;;;;16.00;100.00;99635.09;5047938;28;20036;-74
2023/05/17 05:50:43;;;;;;;13.68;8.43;;;;;;;16.38;100.00;99624.94;5048822;28;20035;-75
2023/05/17 05:53:09;;;;;;;13.82;7.72;;;;;;;16.65;100.00;99638.13;5047785;28;20037;-74
2023/05/17 05:55:35;;;;;;;12.73;7.45;;;;;;;16.70;100.00;99626.56;5048212;28;20039;-74
2023/05/17 05:58:00;;;;;;;14.77;8.30;;;;;;;16.98;100.00;99619.81;5047474;28;20057;-74
2023/05/17 06:00:26;;;;;;;12.98;8.32;;;;;;;16.93;100.00;99601.78;5042826;28;20059;-74
2023/05/17 06:02:52;;;;;;;11.07;8.20;;;;;;;16.91;100.00;99606.63;5067462;28;20497;-73
2023/05/17 06:05:18;;;;;;;15.80;7.88;;;;;;;17.29;100.00;99631.34;5049702;28;20101;-74
2023/05/17 06:07:43;;;;;;;13.27;7.70;;;;;;;17.36;100.00;99612.19;5067401;28;20033;-74
2023/05/17 06:10:09;;;;;;;13.23;7.40;;;;;;;17.66;99.50;99625.53;5067851;28;20031;-73
2023/05/17 06:12:35;;;;;;;15.20;8.27;;;;;;;17.51;100.00;99627.50;5067808;28;20040;-74
2023/05/17 06:15:00;;;;;;;12.65;7.07;;;;;;;17.48;100.00;99620.75;5067168;28;20024;-73
2023/05/17 06:17:25;;;;;;;11.25;7.00;;;;;;;17.67;98.93;99608.28;5067040;28;20040;-75
2023/05/17 06:19:51;;;;;;;11.82;7.03;;;;;;;17.64;98.32;99603.44;5067432;28;20028;-76
2023/05/17 06:22:16;;;;;;;13.52;7.32;;;;;;;17.20;100.00;99614.94;5067202;28;20472;-76
2023/05/17 06:24:42;;;;;;;11.60;6.38;;;;;;;17.26;100.00;99630.00;5067646;28;20039;-74
2023/05/17 06:27:07;;;;;;;13.30;6.38;;;;;;;17.22;100.00;99628.13;5066632;28;20032;-75
2023/05/17 06:29:33;;;;;;;12.18;6.50;;;;;;;17.41;100.00;99631.84;5066830;28;20107;-75
2023/05/17 06:31:58;;;;;;;11.80;6.82;;;;;;;17.38;100.00;99634.28;5066676;28;20067;-75
2023/05/17 06:34:24;;;;;;;10.82;6.22;;;;;;;17.21;100.00;99640.78;5067218;28;20094;-75
2023/05/17 06:36:50;;;;;;;10.77;5.90;;;;;;;17.10;100.00;99631.13;5049715;28;20028;-75
2023/05/17 06:39:16;;;;;;;10.85;6.90;;;;;;;17.16;100.00;99656.97;5067288;28;20032;-74
2023/05/17 06:41:41;;;;;;;12.48;6.53;;;;;;;16.96;100.00;99662.38;5066656;28;20077;-75
2023/05/17 06:44:07;;;;;;;12.73;7.25;;;;;;;16.99;100.00;99638.41;5066993;28;20040;-76
2023/05/17 06:46:32;;;;;;;10.30;6.00;;;;;;;17.13;100.00;99656.72;5067126;28;20036;-75
2023/05/17 06:48:57;;;;;;;11.07;6.22;;;;;;;17.29;99.75;99644.81;5066491;28;20035;-73
2023/05/17 06:51:23;;;;;;;11.32;6.18;;;;;;;17.37;98.82;99646.16;5066317;28;20069;-74
2023/05/17 06:53:49;;;;;;;12.57;6.60;;;;;;;17.42;100.00;99670.38;5066761;28;20020;-73
2023/05/17 06:56:15;;;;;;;10.32;6.28;;;;;;;17.26;100.00;99661.53;5066584;28;20093;-74
2023/05/17 06:58:40;;;;;;;11.13;6.45;;;;;;;17.16;100.00;99648.06;5066781;28;20048;-74
2023/05/17 07:01:06;;;;;;;12.60;6.50;;;;;;;17.37;100.00;99670.41;5069073;28;20469;-74
2023/05/17 07:03:32;;;;;;;11.90;6.70;;;;;;;17.35;100.00;99680.66;5068338;28;20028;-73
2023/05/17 07:05:59;;;;;;;14.50;7.10;;;;;;;17.22;100.00;99663.97;5069467;28;20482;-74
2023/05/17 07:08:25;;;;;;;16.42;6.85;;;;;;;17.33;100.00;99672.03;5051365;28;20024;-74
2023/05/17 07:10:51;;;;;;;13.00;6.85;;;;;;;17.13;100.00;99676.38;5070348;28;20110;-72
2023/05/17 07:13:16;;;;;;;13.95;8.00;;;;;;;17.02;100.00;99682.84;5069906;28;20024;-74
2023/05/17 07:15:42;;;;;;;14.63;7.38;;;;;;;17.27;100.00;99673.94;5069438;28;20824;-74
2023/05/17 07:18:07;;;;;;;13.02;7.00;;;;;;;17.38;100.00;99669.31;5070185;28;20040;-73
2023/05/17 07:20:33;;;;;;;12.43;6.80;;;;;;;17.43;100.00;99650.44;5068852;28;20040;-74
2023/05/17 07:22:58;;;;;;;15.07;6.90;;;;;;;17.58;100.00;99642.28;5069958;28;20054;-73
2023/05/17 07:25:24;;;;;;;10.93;6.43;;;;;;;17.63;100.00;99655.78;5068705;28;20519;-73
2023/05/17 07:27:49;;;;;;;11.50;6.82;;;;;;;17.76;99.44;99665.16;5068307;28;20038;-73
2023/05/17 07:30:15;;;;;;;14.35;6.43;;;;;;;17.79;98.01;99661.88;5049888;28;20549;-73
2023/05/17 07:32:41;;;;;;;12.95;6.82;;;;;;;17.81;100.00;99667.00;5050306;28;20634;-73
2023/05/17 07:35:06;;;;;;;13.43;7.00;;;;;;;17.71;100.00;99672.44;5049638;28;20035;-74
2023/05/17 07:37:32;;;;;;;10.93;7.15;;;;;;;18.12;98.58;99674.97;5049250;28;20064;-74
2023/05/17 07:39:57;;;;;;;10.20;7.00;;;;;;;18.07;98.44;99671.22;5049127;28;20113;-73
2023/05/17 07:42:23;;;;;;;12.32;6.28;;;;;;;17.93;100.00;99680.22;5049498;28;20036;-74
2023/05/17 07:44:48;;;;;;;10.68;6.72;;;;;;;17.70;100.00;99665.44;5049334;28;20052;-73
2023/05/17 07:47:14;;;;;;;12.25;7.05;;;;;;;17.60;100.00;99677.88;5049552;28;20032;-74
2023/05/17 07:49:40;;;;;;;11.80;7.43;;;;;;;17.71;100.00;99675.16;5049469;28;20028;-74
2023/05/17 07:52:06;;;;;;;10.57;6.97;;;;;;;17.50;100.00;99666.31;5049624;28;20044;-73
2023/05/17 07:54:31;;;;;;;13.00;7.22;;;;;;;17.49;100.00;99681.69;5049622;28;20119;-73
2023/05/17 07:56:58;;;;;;;12.95;7.43;;;;;;;17.41;100.00;99684.97;5048915;28;20072;-73
2023/05/17 07:59:24;;;;;;;11.57;7.32;;;;;;;17.19;100.00;99683.38;5048711;28;20032;-73
2023/05/17 08:01:50;;;;;;;14.13;7.07;;;;;;;17.05;100.00;99693.88;5049270;28;20029;-74
2023/05/17 08:04:15;;;;;;;15.38;7.88;;;;;;;16.94;100.00;99691.47;5048864;28;20036;-73
2023/05/17 08:06:44;;;;;;;13.05;7.13;;;;;;;16.97;100.00;99690.94;5048867;28;20414;-73
2023/05/17 08:09:09;;;;;;;14.43;7.72;;;;;;;16.89;100.00;99675.31;5049069;28;20037;-74
2023/05/17 08:11:35;;;;;;;18.48;8.18;;;;;;;16.86;100.00;99672.09;5049077;28;20037;-74
2023/05/17 08:14:01;;;;;;;11.57;7.53;;;;;;;16.94;100.00;99678.81;5048806;28;20028;-74
2023/05/17 08:16:26;;;;;;;12.55;8.07;;;;;;;16.95;100.00;99676.94;5049689;28;20163;-74
2023/05/17 08:18:52;;;;;;;11.02;7.47;;;;;;;16.93;100.00;99668.31;5048813;28;20040;-75
2023/05/17 08:21:17;;;;;;;15.60;8.07;;;;;;;16.86;100.00;99693.63;5048694;28;20035;-74
2023/05/17 08:23:43;;;;;;;15.07;7.63;;;;;;;16.88;100.00;99679.91;5049495;28;20405;-75
2023/05/17 08:26:09;;;;;;;13.05;8.02;;;;;;;16.81;100.00;99688.22;5031452;28;20095;-74
2023/05/17 08:28:34;;;;;;;15.02;8.20;;;;;;;16.72;100.00;99689.03;5048946;28;20027;-75
2023/05/17 08:31:00;;;;;;;16.55;8.95;;;;;;;16.73;100.00;99690.63;5047794;28;20036;-75
2023/05/17 08:33:26;;;;;;;14.32;8.25;;;;;;;16.42;100.00;99680.63;5047317;28;20093;-74
2023/05/17 08:35:54;;;;;;;14.70;9.13;;;;;;;16.51;100.00;99688.19;5049210;28;20021;-75
2023/05/17 08:38:20;;;;;;;17.02;9.43;;;;;;;16.60;100.00;99692.78;5048988;28;20506;-75
2023/05/17 08:40:53;;;;;;;16.17;10.57;;;;;;;16.11;100.00;99676.28;5049644;28;20086;-76
2023/05/17 08:43:20;;;;;;;18.20;10.70;;;;;;;16.14;100.00;99694.56;5047580;28;20458;-75
2023/05/17 08:45:48;;;;;;;14.48;10.80;;;;;;;15.99;100.00;99685.38;5029197;28;20032;-77
2023/05/17 08:48:16;;;;;;;16.45;10.13;;;;;;;16.20;100.00;99688.13;5030125;28;20043;-77
2023/05/17 08:50:43;;;;;;;15.82;9.15;;;;;;;16.30;100.00;99669.31;5046967;28;20049;-76
2023/05/17 08:53:09;;;;;;;15.88;9.52;;;;;;;16.30;100.00;99666.63;5045394;28;20509;-73
2023/05/17 08:55:36;;;;;;;16.38;11.73;;;;;;;16.31;100.00;99664.75;5046306;28;20071;-75
2023/05/17 08:58:04;;;;;;;18.75;11.32;;;;;;;16.43;100.00;99662.63;5046545;28;20053;-75
2023/05/17 09:00:32;;;;;;;19.02;11.68;;;;;;;16.45;100.00;99657.78;5048107;28;20021;-75
2023/05/17 09:02:59;;;;;;;19.65;11.30;;;;;;;16.42;100.00;99663.69;5046159;28;20029;-76
2023/05/17 09:05:25;;;;;;;15.73;10.18;;;;;;;16.42;100.00;99667.19;5027196;28;20037;-77
2023/05/17 09:07:52;;;;;;;23.13;15.98;;;;;;;16.42;100.00;99658.31;5048281;28;20040;-76
2023/05/17 09:10:18;;;;;;;29.35;23.10;;;;;;;16.04;100.00;99646.94;5047924;28;20028;-76
2023/05/17 09:12:47;;;;;;;22.30;16.60;;;;;;;15.86;100.00;99634.78;5047088;28;20025;-76
2023/05/17 09:15:17;;;;;;;86.13;77.72;;;;;;;15.74;100.00;99650.34;5048100;28;20421;-76
2023/05/17 09:17:50;;;;;;;36.72;32.72;;;;;;;15.94;100.00;99649.59;5051057;28;20096;-77
2023/05/17 09:20:24;;;;;;;66.20;58.78;;;;;;;15.95;100.00;99662.78;5052023;28;20033;-76
2023/05/17 09:22:51;;;;;;;21.98;16.70;;;;;;;16.23;100.00;99666.09;5051252;28;20607;-76
2023/05/17 09:25:22;;;;;;;27.15;24.35;;;;;;;16.25;100.00;99655.88;5051504;28;20035;-76
2023/05/17 09:27:52;;;;;;;22.27;17.70;;;;;;;16.29;100.00;99651.56;5050010;28;20456;-76
2023/05/17 09:30:17;;;;;;;20.33;15.20;;;;;;;16.45;100.00;99650.50;5051175;28;20460;-76
2023/05/17 09:32:44;;;;;;;20.13;13.70;;;;;;;16.51;100.00;99656.72;5053011;28;20036;-77
2023/05/17 09:35:10;;;;;;;19.70;15.98;;;;;;;16.38;100.00;99633.81;5052312;28;20033;-76
2023/05/17 09:37:37;;;;;;;26.98;20.38;;;;;;;16.33;100.00;99644.56;5051281;28;20033;-75
2023/05/17 09:40:05;;;;;;;24.75;16.45;;;;;;;16.38;100.00;99631.13;5051293;28;20037;-75
2023/05/17 09:42:36;;;;;;;21.58;16.52;;;;;;;16.22;100.00;99619.53;5050813;28;20048;-75
2023/05/17 09:45:01;;;;;;;17.70;12.20;;;;;;;16.44;100.00;99646.19;5050469;28;20029;-75
2023/05/17 09:47:28;;;;;;;25.83;21.50;;;;;;;16.39;100.00;99635.44;5051618;28;20391;-74
2023/05/17 09:49:59;;;;;;;23.27;16.75;;;;;;;16.17;100.00;99656.38;5052808;28;20029;-74
2023/05/17 09:52:30;;;;;;;19.40;15.10;;;;;;;16.17;100.00;99645.63;5051958;28;20037;-74
2023/05/17 09:54:57;;;;;;;19.08;11.90;;;;;;;16.42;100.00;99647.53;5051913;28;20048;-74
2023/05/17 09:57:35;;;;;;;29.45;19.83;;;;;;;16.48;100.00;99628.44;5032772;28;20048;-75
2023/05/17 10:00:01;;;;;;;;;;;;;;;16.71;100.00;99655.88;5051750;28;20087;-75
2023/05/17 10:02:31;;;;;;;67.68;60.28;;;;;;;16.75;100.00;99645.41;5051544;28;19916;-74
2023/05/17 10:04:57;;;;;;;25.42;16.85;;;;;;;16.57;100.00;99649.41;5051111;28;20123;-76
2023/05/17 10:07:26;;;;;;;32.20;20.73;;;;;;;16.70;100.00;99642.72;5050679;28;20037;-76
2023/05/17 10:09:53;;;;;;;24.80;16.33;;;;;;;16.56;100.00;99658.59;5051594;28;20029;-76
2023/05/17 10:12:21;;;;;;;17.65;11.55;;;;;;;16.35;100.00;99637.03;5051329;28;20301;-76
2023/05/17 10:14:47;;;;;;;;;;;;;;;16.25;100.00;99664.72;5051795;28;20025;-76
2023/05/17 10:17:14;;;;;;;17.58;10.50;;;;;;;16.14;100.00;99651.53;5050697;28;20513;-75
2023/05/17 10:19:40;;;;;;;18.27;11.25;;;;;;;16.24;100.00;99667.69;5048508;28;20040;-75
2023/05/17 10:22:07;;;;;;;15.52;10.52;;;;;;;16.15;100.00;99663.91;5050701;28;20055;-75
2023/05/17 10:24:36;;;;;;;16.90;9.98;;;;;;;16.22;100.00;99648.31;5050417;28;20025;-75
2023/05/17 10:27:04;;;;;;;16.20;10.30;;;;;;;16.42;100.00;99664.47;5050219;28;20064;-76
2023/05/17 10:29:33;;;;;;;15.37;10.10;;;;;;;16.23;100.00;99661.50;5049905;28;20036;-75
2023/05/17 10:32:03;;;;;;;16.50;10.52;;;;;;;16.38;100.00;99660.72;5050334;28;20260;-75
2023/05/17 10:34:30;;;;;;;15.60;9.98;;;;;;;16.37;100.00;99634.91;5050625;28;20017;-76
2023/05/17 10:36:56;;;;;;;32.83;19.33;;;;;;;16.33;100.00;99619.56;5032652;28;20051;-75
2023/05/17 10:39:23;;;;;;;23.40;14.20;;;;;;;16.40;100.00;99647.78;5050681;28;20036;-76
2023/05/17 10:41:51;;;;;;;18.15;12.80;;;;;;;16.25;100.00;99621.69;5049759;28;20033;-76
2023/05/17 10:44:17;;;;;;;23.33;15.60;;;;;;;16.26;100.00;99606.34;5051307;28;20021;-76
2023/05/17 10:46:57;;;;;;;19.63;14.38;;;;;;;16.14;100.00;99601.25;5050493;28;20037;-76
2023/05/17 10:49:31;;;;;;;19.05;15.02;;;;;;;16.00;100.00;99598.25;5032144;28;20060;-76
2023/05/17 10:51:57;;;;;;;22.58;14.50;;;;;;;16.19;100.00;99621.94;5050398;28;20033;-76
2023/05/17 10:54:39;;;;;;;56.05;50.42;;;;;;;16.24;100.00;99611.19;5032008;28;20151;-76
2023/05/17 10:57:05;;;;;;;30.55;24.48;;;;;;;16.26;100.00;99617.09;5050269;28;20049;-77
2023/05/17 10:59:32;;;;;;;17.55;11.85;;;;;;;16.40;100.00;99612.81;5051562;28;20040;-76
2023/05/17 11:02:09;;;;;;;18.42;12.52;;;;;;;16.27;100.00;99607.97;5050730;28;20043;-76
2023/05/17 11:04:39;;;;;;;15.25;11.05;;;;;;;16.39;100.00;99605.81;5051011;28;20359;-76
2023/05/17 11:07:27;;;;;;;16.25;11.48;;;;;;;16.28;100.00;99604.19;5050678;28;20036;-76
2023/05/17 11:10:07;;;;;;;14.82;10.32;;;;;;;16.37;100.00;99596.41;5050387;28;20036;-75
2023/05/17 11:12:52;;;;;;;24.30;17.40;;;;;;;16.43;100.00;99596.13;5049389;28;20025;-75
2023/05/17 11:15:23;;;;;;;17.40;12.63;;;;;;;16.59;100.00;99590.75;5050564;28;20033;-75